Tiempo atmosférico en la estación meteorológica de Agulo, Santa Cruz de Tenerife (765 m.)

Fecha
DESCASC
Temp. máxima en grados centígrados (hora)
DESCASC
Temp. mínima en grados centígrados (hora)
DESCASC
Temp. media en grados centígrados
DESCASC
Racha de viento máxima en m/sg (hora)
DESCASC
Velocidad máxima media en intervalos de 10 minutos(hora)
DESCASC
Precipitaciones diarias en mm
DESCASC
Precipitaciones de 00:00 a 06:00 en mm
DESCASC
Precipitaciones de 06:00 a 12:00 en mm
DESCASC
Precipitaciones de 12:00 a 18:00 en mm
DESCASC
Precipitaciones de 18:00 a 24:00 en mm
DESCASC
21-08-2017 31.8 (15:20) 18.9 (06:30) 25.3 9.17 (06:40) 6.39 (06:50) 0 0 0 0 0
20-08-2017 26.2 (16:00) 17 (06:00) 21.6 8.33 (11:10) 3.89 (11:10) 0 0 0 0 0
19-08-2017 22.7 (15:20) 16.5 (05:50) 19.6 7.22 (06:00) 3.89 (06:00) 0 0 0 0 0
18-08-2017 26.5 (15:20) 17.6 (07:40) 22.1 8.06 (00:30) 3.06 (00:40) 0 0 0 0 0
17-08-2017 26.5 (13:40) 16.6 (00:00) 21.6 7.22 (22:10) 3.33 (22:10) 0 0 0 0 0
16-08-2017 24 (18:00) 16.3 (00:00) 20.1 4.72 (22:00) 2.22 (21:50) 0 0 0 0 0
15-08-2017 24.8 (15:00) 14.8 (00:00) 19.8 4.44 (14:40) 2.22 (14:10) 0 0 0 0 0
14-08-2017 24.5 (15:50) 14.8 (06:10) 19.7 4.72 (16:10) 3.06 (00:30) 0 0 0 0 0
13-08-2017 27 (13:40) 18 (00:00) 22.5 5.83 (22:50) 3.89 (22:40) 0 0 0 0 0
12-08-2017 28.2 (14:40) 16.8 (00:00) 22.5 7.22 (02:40) 3.06 (20:50) 0 0 0 0 0
11-08-2017 27.4 (16:00) 15.7 (00:00) 21.5 8.89 (03:30) 4.17 (01:50) 0 0 0 0 0
10-08-2017 25.5 (15:00) 16.6 (00:00) 21.1 6.39 (01:40) 2.78 (01:30) 0 0 0 0 0
09-08-2017 31.5 (12:40) 17.5 (00:00) 24.5 7.78 (03:50) 4.72 (06:00) 0 0 0 0 0
08-08-2017 34.4 (13:20) 19.3 (00:00) 26.9 6.67 (11:00) 4.44 (11:00) 0 0 0 0 0
07-08-2017 29.5 (12:50) 16.9 (00:00) 23.2 5 (12:20) 3.33 (09:30) 0 0 0 0 0
06-08-2017 22.2 (13:00) 16.6 (00:00) 19.4 5 (13:00) 2.78 (23:59) 0 0 0 0 0
05-08-2017 23.1 (13:50) 16.4 (00:00) 19.8 7.78 (21:50) 3.33 (13:50) 0 0 0 0 0
04-08-2017 22 (13:20) 15.7 (00:00) 18.8 5.28 (03:10) 2.5 (14:20) 0 0 0 0 0
03-08-2017 19.9 (14:30) 15.6 (00:00) 17.8 7.5 (05:30) 3.33 (05:30) 0 0 0 0 0
02-08-2017 18.9 (13:30) 16.2 (00:00) 17.6 7.22 (23:50) 2.78 (08:40) 0 0 0 0 0
01-08-2017 22.9 (16:20) 15.9 (00:00) 19.4 8.33 (12:20) 3.06 (12:20) 1 0 0 0.2 0.8
31-07-2017 23.3 (15:20) 14.8 (00:00) 19 6.39 (18:00) 2.5 (14:50) 0 0 0 0 0
30-07-2017 25.6 (12:40) 16.4 (00:00) 21 4.44 (13:50) 2.78 (05:10) 0 0 0 0 0
29-07-2017 34.8 (14:00) 24.1 (00:00) 29.4 4.72 (06:20) 2.78 (09:50) 0 0 0 0 0
28-07-2017 38.4 (17:00) 24 (00:00) 31.2 5.83 (18:40) 4.17 (18:30) 0 0 0 0 0
27-07-2017 35.6 (17:40) 21.5 (00:00) 28.5 5 (01:20) 3.89 (23:00) 0 0 0 0 0
26-07-2017 24.8 (16:10) 15.5 (00:00) 20.1 4.72 (22:40) 3.06 (22:30) 0 0 0 0 0
25-07-2017 20.8 (16:10) 15.8 (00:00) 18.3 4.44 (01:00) 1.94 (17:20) 0 0 0 0 0
24-07-2017 18.1 (17:40) 15 (00:00) 16.6 6.11 (00:10) 2.5 (23:10) 0 0 0 0 0
23-07-2017 19.1 (14:40) 14.8 (00:00) 17 7.22 (16:40) 2.5 (04:30) 0 0 0 0 0

Gráficas

Temp. máximas Temp. mínimas Temp. medias Precipitaciones Rachas de viento máximas Velocidades máximas media en intervalos de 10 minutos

Datos horarios

Fecha y hora oficial Temperatura (ºC) Velocidad del viento (km/h) Dirección del viento Racha (km/h) Dirección de racha Precipitación (mm) Presión (hPa) Tendencia (hPa) Humedad (%)
2017-08-21 23:00:00 24.7 5 Sur 16 Sur 0 -- -- 25
2017-08-21 22:00:00 24 4 Sur 10 Nordeste 0 -- -- 26
2017-08-21 21:00:00 24.6 5 Sudoeste 19 Sur 0 -- -- 23
2017-08-21 20:00:00 25.6 4 Sur 14 Este 0 -- -- 26
2017-08-21 19:00:00 28.2 5 Este 12 Sudeste 0 -- -- 21
2017-08-21 18:00:00 30.1 6 Sudeste 14 Este 0 -- -- 19
2017-08-21 17:00:00 31.2 5 Sudeste 15 Sur 0 -- -- 21
2017-08-21 16:00:00 31.2 7 Sudeste 17 Este 0 -- -- 18
2017-08-21 15:00:00 31 5 Nordeste 14 Sudeste 0 -- -- 25
2017-08-21 14:00:00 29.8 5 Sudoeste 13 Sur 0 -- -- 27
2017-08-21 13:00:00 28.6 4 Nordeste 13 Norte 0 -- -- 29
2017-08-21 12:00:00 28.3 3 Sudeste 13 Norte 0 -- -- 41
2017-08-21 11:00:00 26.2 7 Norte 22 Norte 0 -- -- 42
2017-08-21 10:00:00 23.8 15 Norte 25 Norte 0 -- -- 47
2017-08-21 09:00:00 21.9 19 Noroeste 28 Noroeste 0 -- -- 46
2017-08-21 08:00:00 21 11 Oeste 21 Oeste 0 -- -- 44
2017-08-21 07:00:00 21.4 19 Noroeste 33 Noroeste 0 -- -- 42
2017-08-21 06:00:00 21.2 7 Norte 23 Sudoeste 0 -- -- 36
2017-08-21 05:00:00 21.6 10 Sur 18 Sudoeste 0 -- -- 34
2017-08-21 04:00:00 20.9 6 Sur 20 Sudeste 0 -- -- 39
2017-08-21 03:00:00 20.4 6 Sur 15 Sur 0 -- -- 37
2017-08-21 02:00:00 20.7 4 Sudoeste 12 Sudoeste 0 -- -- 33
2017-08-21 01:00:00 21.9 8 Sur 18 Sudoeste 0 -- -- 34
2017-08-21 00:00:00 21.9 5 Sudoeste 17 Este 0 -- -- 34
2017-08-20 23:00:00 22.1 5 Sur 19 Este 0 -- -- 41
2017-08-20 22:00:00 21.3 3 Oeste 12 Norte 0 -- -- 51
2017-08-20 21:00:00 22.1 4 Oeste 17 Sudeste 0 -- -- 53
2017-08-20 20:00:00 23.6 5 Sudeste 15 Sudeste 0 -- -- 48
2017-08-20 19:00:00 24.8 4 Noroeste 10 Noroeste 0 -- -- 51
2017-08-20 18:00:00 25.1 4 Noroeste 12 Sudoeste 0 -- -- 63
2017-08-20 17:00:00 25.7 4 Sudoeste 12 Sur 0 -- -- 63
2017-08-20 16:00:00 26.2 5 Sur 15 Este 0 -- -- 61
2017-08-20 15:00:00 25.5 5 Sudoeste 15 Norte 0 -- -- 62
2017-08-20 14:00:00 23 5 Nordeste 19 Norte 0 -- -- 62
2017-08-20 13:00:00 20.1 9 Este 21 Norte 0 -- -- 72
2017-08-20 12:00:00 18.2 9 Norte 30 Noroeste 0 -- -- 97
2017-08-20 11:00:00 17.4 8 Noroeste 24 Noroeste 0 -- -- 99
2017-08-20 10:00:00 17.5 4 Sudeste 14 Sudeste 0 -- -- 100
2017-08-20 09:00:00 17.4 4 Sudeste 19 Nordeste 0 -- -- 100
2017-08-20 08:00:00 17 7 Este 22 Nordeste 0 -- -- 99
2017-08-20 07:00:00 17.1 5 Nordeste 18 Nordeste 0 -- -- 99
2017-08-20 06:00:00 17 5 Sudeste 14 Norte 0 -- -- 99
2017-08-20 05:00:00 17.1 6 Nordeste 18 Norte 0 -- -- 99
2017-08-20 04:00:00 17.2 4 Sur 19 Norte 0 -- -- 99
2017-08-20 03:00:00 17.2 4 Sudeste 17 Noroeste 0 -- -- 99
2017-08-20 02:00:00 17.1 7 Este 24 Este 0 -- -- 99
2017-08-20 01:00:00 17.2 4 Nordeste 19 Sudeste 0 -- -- 99
2017-08-20 00:00:00 17.4 5 Este 13 Este 0 -- -- 98
2017-08-19 23:00:00 17.5 7 Este 19 Nordeste 0 -- -- 98
2017-08-19 22:00:00 17.7 4 Este 18 Este 0 -- -- 98
2017-08-19 21:00:00 18.1 5 Este 18 Norte 0 -- -- 97
2017-08-19 20:00:00 18.7 4 Nordeste 18 Noroeste 0 -- -- 94
2017-08-19 19:00:00 19.2 4 Este 17 Nordeste 0 -- -- 91
2017-08-19 18:00:00 20.5 5 Sur 15 Sudeste 0 -- -- 86
2017-08-19 17:00:00 21.4 5 Sudeste 18 Nordeste 0 -- -- 79
2017-08-19 16:00:00 22.4 6 Sudeste 18 Este 0 -- -- 76
2017-08-19 15:00:00 22.2 5 Sudeste 20 Este 0 -- -- 76
2017-08-19 14:00:00 21.7 6 Sudeste 19 Oeste 0 -- -- 79
2017-08-19 13:00:00 21 6 Sudeste 24 Nordeste 0 -- -- 80
2017-08-19 12:00:00 18.8 6 Sudeste 17 Sudeste 0 -- -- 92
2017-08-19 11:00:00 17.9 7 Este 19 Este 0 -- -- 97
2017-08-19 10:00:00 17.8 5 Sur 15 Sur 0 -- -- 98
2017-08-19 09:00:00 17.2 7 Nordeste 17 Nordeste 0 -- -- 97
2017-08-19 08:00:00 16.8 5 Oeste 24 Este 0 -- -- 97
2017-08-19 07:00:00 16.6 5 Noroeste 22 Norte 0 -- -- 97
2017-08-19 06:00:00 16.6 14 Noroeste 26 Norte 0 -- -- 96
2017-08-19 05:00:00 16.7 7 Norte 23 Este 0 -- -- 94
2017-08-19 04:00:00 17 5 Nordeste 18 Nordeste 0 -- -- 97
2017-08-19 03:00:00 16.9 10 Sudoeste 20 Oeste 0 -- -- 94
2017-08-19 02:00:00 17.1 7 Este 21 Nordeste 0 -- -- 88
2017-08-19 01:00:00 17.4 9 Noroeste 23 Noroeste 0 -- -- 94
2017-08-19 00:00:00 17.7 5 Sudeste 19 Noroeste 0 -- -- 95
2017-08-18 23:00:00 17.7 6 Nordeste 26 Nordeste 0 -- -- 95
2017-08-18 22:00:00 18.1 5 Nordeste 22 Noroeste 0 -- -- 94
2017-08-18 21:00:00 18.3 6 Norte 21 Noroeste 0 -- -- 90
2017-08-18 20:00:00 20.3 7 Noroeste 26 Sudeste 0 -- -- 81
2017-08-18 19:00:00 21.2 6 Nordeste 20 Nordeste 0 -- -- 73
2017-08-18 18:00:00 22.2 6 Norte 17 Norte 0 -- -- 75
2017-08-18 17:00:00 23.4 9 Norte 18 Norte 0 -- -- 70
2017-08-18 16:00:00 25.5 8 Norte 24 Este 0 -- -- 52
2017-08-18 15:00:00 25.9 9 Este 25 Este 0 -- -- 51
2017-08-18 14:00:00 25.3 6 Sudeste 21 Este 0 -- -- 59
2017-08-18 13:00:00 23.8 5 Este 19 Sudoeste 0 -- -- 63
2017-08-18 12:00:00 23.6 8 Noroeste 24 Este 0 -- -- 63
2017-08-18 11:00:00 21.8 9 Nordeste 23 Nordeste 0 -- -- 68
2017-08-18 10:00:00 20.9 8 Este 29 Este 0 -- -- 73
2017-08-18 09:00:00 19.7 10 Este 26 Este 0 -- -- 74
2017-08-18 08:00:00 17.6 6 Sur 17 Este 0 -- -- 86
2017-08-18 07:00:00 18.3 5 Este 14 Nordeste 0 -- -- 84
2017-08-18 06:00:00 20.5 7 Norte 26 Nordeste 0 -- -- 50
2017-08-18 05:00:00 19.9 8 Sudeste 21 Sur 0 -- -- 54
2017-08-18 04:00:00 19.7 8 Sudeste 21 Nordeste 0 -- -- 61
2017-08-18 03:00:00 20.3 6 Sudoeste 21 Nordeste 0 -- -- 51
2017-08-18 02:00:00 20.7 5 Sudeste 20 Sudoeste 0 -- -- 47
2017-08-18 01:00:00 21.4 10 Este 29 Este 0 -- -- 34
2017-08-18 00:00:00 20.6 7 Este 24 Este 0 -- -- 48
2017-08-17 23:00:00 20.9 6 Sudoeste 26 Sudoeste 0 -- -- 46
2017-08-17 22:00:00 21.1 8 Este 23 Sur 0 -- -- 46
2017-08-17 21:00:00 20.7 5 Este 19 Sudoeste 0 -- -- 65
2017-08-17 20:00:00 21.7 5 Norte 12 Norte 0 -- -- 75
2017-08-17 19:00:00 23.2 4 Noroeste 9 Norte 0 -- -- 75
2017-08-17 18:00:00 22.2 4 Sudeste 12 Nordeste 0 -- -- 81
2017-08-17 17:00:00 22 7 Norte 13 Noroeste 0 -- -- 83
2017-08-17 16:00:00 25.1 5 Noroeste 12 Noroeste 0 -- -- 71
2017-08-17 15:00:00 26.5 6 Sur 17 Sudeste 0 -- -- 66
2017-08-17 14:00:00 26 7 Sudeste 14 Sur 0 -- -- 67
2017-08-17 13:00:00 25.5 4 Sur 14 Sudeste 0 -- -- 68
2017-08-17 12:00:00 25.5 5 Sudeste 14 Sudeste 0 -- -- 67
2017-08-17 11:00:00 22.3 6 Sudeste 12 Sudeste 0 -- -- 78
2017-08-17 10:00:00 20.3 6 Sudeste 11 Norte 0 -- -- 83
2017-08-17 09:00:00 17.6 2 Oeste 13 Norte 0 -- -- 96
2017-08-17 08:00:00 16.6 12 Norte 15 Este 0 -- -- 93
2017-08-17 07:00:00 17.1 3 Nordeste 9 Norte 0 -- -- 96
2017-08-17 06:00:00 17.5 6 Norte 12 Norte 0 -- -- 98
2017-08-17 05:00:00 17.2 4 Norte 10 Nordeste 0 -- -- 98
2017-08-17 04:00:00 17.4 2 Oeste 12 Nordeste 0 -- -- 98
2017-08-17 03:00:00 17.4 3 Nordeste 12 Norte 0 -- -- 98
2017-08-17 02:00:00 17.3 4 Nordeste 9 Este 0 -- -- 97
2017-08-17 01:00:00 17.6 3 Sur 9 Este 0 -- -- 96
2017-08-17 00:00:00 17.7 3 Sur 10 Sudeste 0 -- -- 95
2017-08-16 23:00:00 17.8 4 Este 12 Oeste 0 -- -- 93
2017-08-16 22:00:00 18.2 6 Este 17 Sudeste 0 -- -- 85
2017-08-16 21:00:00 18.1 4 Noroeste 9 Norte 0 -- -- 92
2017-08-16 20:00:00 18.8 3 Norte 7 Nordeste 0 -- -- 92
2017-08-16 19:00:00 20.9 3 Sudeste 10 Norte 0 -- -- 82
2017-08-16 18:00:00 24 4 Sudeste 14 Este 0 -- -- 70
2017-08-16 17:00:00 21.1 5 Norte 12 Norte 0 -- -- 82
2017-08-16 16:00:00 22.6 3 Este 11 Este 0 -- -- 74
2017-08-16 15:00:00 22.9 4 Sudeste 15 Norte 0 -- -- 73
2017-08-16 14:00:00 23.9 5 Sudeste 15 Sur 0 -- -- 69
2017-08-16 13:00:00 21.9 6 Sudeste 14 Este 0 -- -- 76
2017-08-16 12:00:00 19.6 4 Noroeste 13 Norte 0 -- -- 86
2017-08-16 11:00:00 19.6 5 Noroeste 11 Norte 0 -- -- 85
2017-08-16 10:00:00 17.8 4 Nordeste 11 Nordeste 0 -- -- 88
2017-08-16 09:00:00 17 3 Oeste 7 Norte 0 -- -- 90
2017-08-16 08:00:00 16.3 4 Sudoeste 8 Sur 0 -- -- 90
2017-08-16 07:00:00 16.4 3 Sudeste 13 Sur 0 -- -- 92
2017-08-16 06:00:00 16.5 3 Sudeste 8 Este 0 -- -- 92
2017-08-16 05:00:00 16.6 2 Sudeste 6 Sudeste 0 -- -- 91
2017-08-16 04:00:00 16.4 3 Sur 8 Nordeste 0 -- -- 91
2017-08-16 03:00:00 16.7 3 Sudeste 8 Norte 0 -- -- 89
2017-08-16 02:00:00 16.5 3 Sudoeste 7 Sur 0 -- -- 87
2017-08-16 01:00:00 17.1 3 Sudeste 9 Este 0 -- -- 91
2017-08-16 00:00:00 17.2 3 Sudeste 12 Sudeste 0 -- -- 89
2017-08-15 23:00:00 17.6 3 Sudeste 12 Nordeste 0 -- -- 90
2017-08-15 22:00:00 17.6 4 Sudeste 12 Este 0 -- -- 90
2017-08-15 21:00:00 17.8 3 Sur 13 Este 0 -- -- 89
2017-08-15 20:00:00 18.5 4 Sur 13 Este 0 -- -- 85
2017-08-15 19:00:00 18.7 4 Este 13 Sudeste 0 -- -- 87
2017-08-15 18:00:00 21.9 7 Sudeste 14 Sudeste 0 -- -- 70
2017-08-15 17:00:00 21.1 5 Sudeste 14 Sudeste 0 -- -- 74
2017-08-15 16:00:00 23.6 5 Sudeste 14 Sudeste 0 -- -- 65
2017-08-15 15:00:00 24.8 5 Este 16 Sudeste 0 -- -- 63
2017-08-15 14:00:00 23.4 8 Sur 14 Sudeste 0 -- -- 68
2017-08-15 13:00:00 20.9 4 Sudoeste 12 Sudeste 0 -- -- 78
2017-08-15 12:00:00 19 4 Oeste 14 Sudeste 0 -- -- 85
2017-08-15 11:00:00 18.7 5 Sudeste 13 Este 0 -- -- 84
2017-08-15 10:00:00 18 3 Sudeste 7 Este 0 -- -- 84
2017-08-15 09:00:00 16.6 5 Sudeste 10 Sudoeste 0 -- -- 86
2017-08-15 08:00:00 15 6 Sur 9 Sudoeste 0 -- -- 92
2017-08-15 07:00:00 15.5 5 Sudoeste 8 Sur 0 -- -- 89
2017-08-15 06:00:00 15.6 3 Sudoeste 9 Sudoeste 0 -- -- 88
2017-08-15 05:00:00 15.8 4 Sudeste 8 Este 0 -- -- 85
2017-08-15 04:00:00 15.7 0 Calma 8 Norte 0 -- -- 87
2017-08-15 03:00:00 16.2 3 Norte 9 Norte 0 -- -- 91
2017-08-15 02:00:00 16.4 3 Oeste 9 Noroeste 0 -- -- 89
2017-08-15 01:00:00 16.2 4 Norte 8 Norte 0 -- -- 91
2017-08-15 00:00:00 15.8 4 Noroeste 7 Noroeste 0 -- -- 91
2017-08-14 23:00:00 16 3 Norte 12 Norte 0 -- -- 81
2017-08-14 22:00:00 16.6 6 Noroeste 12 Norte 0 -- -- 80
2017-08-14 21:00:00 17.9 3 Norte 12 Noroeste 0 -- -- 85
2017-08-14 20:00:00 20.1 3 Norte 12 Norte 0 -- -- 74
2017-08-14 19:00:00 20.7 4 Noroeste 10 Norte 0 -- -- 71
2017-08-14 18:00:00 22.6 4 Sur 12 Sudeste 0 -- -- 65
2017-08-14 17:00:00 23.3 4 Sur 17 Norte 0 -- -- 63
2017-08-14 16:00:00 23.6 6 Nordeste 14 Noroeste 0 -- -- 61
2017-08-14 15:00:00 22 5 Norte 13 Sudeste 0 -- -- 66
2017-08-14 14:00:00 22.6 6 Sudoeste 16 Sudeste 0 -- -- 65
2017-08-14 13:00:00 22.4 6 Sur 15 Sudeste 0 -- -- 65
2017-08-14 12:00:00 21.9 5 Sur 13 Sudeste 0 -- -- 68
2017-08-14 11:00:00 20 5 Sur 10 Sudeste 0 -- -- 76
2017-08-14 10:00:00 17.8 3 Sudeste 10 Este 0 -- -- 85
2017-08-14 09:00:00 16.3 3 Nordeste 11 Noroeste 0 -- -- 91
2017-08-14 08:00:00 15.2 0 Calma 10 Nordeste 0 -- -- 95
2017-08-14 07:00:00 14.8 6 Nordeste 10 Este 0 -- -- 94
2017-08-14 06:00:00 15 4 Nordeste 9 Nordeste 0 -- -- 94
2017-08-14 05:00:00 15 5 Nordeste 10 Nordeste 0 -- -- 94
2017-08-14 04:00:00 15.5 6 Norte 9 Norte 0 -- -- 89
2017-08-14 03:00:00 17.8 7 Noroeste 12 Norte 0 -- -- 51
2017-08-14 02:00:00 19.2 6 Noroeste 10 Norte 0 -- -- 17
2017-08-14 01:00:00 18.7 7 Noroeste 14 Noroeste 0 -- -- 21
2017-08-14 00:00:00 18.7 11 Noroeste 17 Norte 0 -- -- 23
2017-08-13 23:00:00 18.6 13 Norte 21 Noroeste 0 -- -- 35
2017-08-13 22:00:00 18 11 Noroeste 15 Norte 0 -- -- 49
2017-08-13 21:00:00 19 8 Noroeste 10 Norte 0 -- -- 75
2017-08-13 20:00:00 22 6 Norte 10 Noroeste 0 -- -- 68
2017-08-13 19:00:00 24.4 4 Noroeste 9 Noroeste 0 -- -- 62
2017-08-13 18:00:00 24.8 3 Norte 12 Nordeste 0 -- -- 41
2017-08-13 17:00:00 25 4 Norte 12 Sur 0 -- -- 40
2017-08-13 16:00:00 26.1 7 Sudeste 16 Sur 0 -- -- 56
2017-08-13 15:00:00 26.7 7 Sur 16 Sudeste 0 -- -- 48
2017-08-13 14:00:00 26.9 6 Sur 14 Este 0 -- -- 41
2017-08-13 13:00:00 25.9 7 Sur 14 Sudeste 0 -- -- 34
2017-08-13 12:00:00 24.8 6 Norte 13 Norte 0 -- -- 28
2017-08-13 11:00:00 24.6 3 Norte 9 Nordeste 0 -- -- 24
2017-08-13 10:00:00 22.9 5 Este 12 Nordeste 0 -- -- 21
2017-08-13 09:00:00 20.9 3 Sudeste 12 Sudoeste 0 -- -- 28
2017-08-13 08:00:00 19 4 Sudeste 9 Este 0 -- -- 31
2017-08-13 07:00:00 18.8 4 Este 14 Sudeste 0 -- -- 36
2017-08-13 06:00:00 18.9 7 Sur 13 Sudoeste 0 -- -- 33
2017-08-13 05:00:00 18.9 6 Sur 14 Sudeste 0 -- -- 36
2017-08-13 04:00:00 19 4 Sur 17 Sudoeste 0 -- -- 37
2017-08-13 03:00:00 18.6 9 Sur 17 Sudoeste 0 -- -- 43
2017-08-13 02:00:00 19.1 7 Este 17 Este 0 -- -- 61
2017-08-13 01:00:00 19.2 5 Este 17 Sudoeste 0 -- -- 62
2017-08-13 00:00:00 19.3 5 Sudeste 16 Sur 0 -- -- 56
2017-08-12 23:00:00 19.6 5 Sur 25 Este 0 -- -- 49
2017-08-12 22:00:00 20.7 8 Sudeste 22 Este 0 -- -- 43
2017-08-12 21:00:00 21.1 8 Sudeste 24 Este 0 -- -- 44
2017-08-12 20:00:00 23.3 5 Sudeste 19 Sudeste 0 -- -- 43
2017-08-12 19:00:00 25.2 7 Sudeste 19 Este 0 -- -- 41
2017-08-12 18:00:00 26.3 5 Este 13 Este 0 -- -- 45
2017-08-12 17:00:00 26.1 6 Sudeste 16 Sudeste 0 -- -- 51
2017-08-12 16:00:00 27.1 7 Sudeste 17 Sudeste 0 -- -- 43
2017-08-12 15:00:00 28 8 Sudeste 19 Sudeste 0 -- -- 42
2017-08-12 14:00:00 27.4 6 Sudeste 17 Este 0 -- -- 36
2017-08-12 13:00:00 26.8 8 Sudeste 17 Sudeste 0 -- -- 37
2017-08-12 12:00:00 25.7 6 Sur 18 Este 0 -- -- 29
2017-08-12 11:00:00 24.6 6 Sudeste 22 Este 0 -- -- 35
2017-08-12 10:00:00 22 9 Sudeste 22 Este 0 -- -- 49
2017-08-12 09:00:00 19.3 5 Sudeste 14 Sudeste 0 -- -- 55
2017-08-12 08:00:00 16.8 4 Noroeste 12 Sudoeste 0 -- -- 78
2017-08-12 07:00:00 17.3 6 Sur 20 Este 0 -- -- 48
2017-08-12 06:00:00 18 4 Sur 24 Este 0 -- -- 38
2017-08-12 05:00:00 17.5 6 Sur 24 Este 0 -- -- 52
2017-08-12 04:00:00 17.6 10 Nordeste 25 Nordeste 0 -- -- 55
2017-08-12 03:00:00 16.8 9 Nordeste 26 Nordeste 0 -- -- 72
2017-08-12 02:00:00 17 7 Sudeste 26 Este 0 -- -- 71
2017-08-12 01:00:00 17.2 9 Sudeste 24 Nordeste 0 -- -- 66
2017-08-12 00:00:00 16.9 5 Sudoeste 17 Sudeste 0 -- -- 68
2017-08-11 23:00:00 16.9 3 Sudeste 13 Este 0 -- -- 86
2017-08-11 22:00:00 17.8 5 Sudeste 21 Este 0 -- -- 83
2017-08-11 21:00:00 19.5 5 Sudeste 17 Este 0 -- -- 47
2017-08-11 20:00:00 22.3 3 Sudoeste 10 Este 0 -- -- 57
2017-08-11 19:00:00 24 4 Sudoeste 13 Sudoeste 0 -- -- 64
2017-08-11 18:00:00 26 7 Este 15 Este 0 -- -- 33
2017-08-11 17:00:00 26.3 5 Sur 13 Sudeste 0 -- -- 47
2017-08-11 16:00:00 27.4 5 Sudeste 14 Sudeste 0 -- -- 52
2017-08-11 15:00:00 26.6 6 Sudeste 22 Este 0 -- -- 45
2017-08-11 14:00:00 25.3 5 Sudeste 17 Este 0 -- -- 52
2017-08-11 13:00:00 24.3 4 Sur 21 Sudeste 0 -- -- 52
2017-08-11 12:00:00 22.5 7 Este 16 Este 0 -- -- 65
2017-08-11 11:00:00 21.4 6 Sudeste 13 Sur 0 -- -- 71
2017-08-11 10:00:00 18.8 5 Sudeste 13 Nordeste 0 -- -- 82
2017-08-11 09:00:00 16.6 6 Norte 14 Sudoeste 0 -- -- 93
2017-08-11 08:00:00 16.6 6 Sudoeste 20 Sudoeste 0 -- -- 72
2017-08-11 07:00:00 16.5 6 Sur 25 Este 0 -- -- 72
2017-08-11 06:00:00 15.9 5 Sur 20 Nordeste 0 -- -- 85
2017-08-11 05:00:00 15.9 4 Sudoeste 23 Nordeste 0 -- -- 96
2017-08-11 04:00:00 16.2 5 Nordeste 32 Este 0 -- -- 96
2017-08-11 03:00:00 16.4 3 Este 18 Noroeste 0 -- -- 95
2017-08-11 02:00:00 16.8 9 Norte 27 Este 0 -- -- 89
2017-08-11 01:00:00 16.8 10 Nordeste 24 Nordeste 0 -- -- 71
2017-08-11 00:00:00 16.8 8 Nordeste 21 Este 0 -- -- 81
2017-08-10 23:00:00 16.8 6 Norte 14 Norte 0 -- -- 95
2017-08-10 22:00:00 17.3 3 Sudeste 10 Nordeste 0 -- -- 96
2017-08-10 21:00:00 17.8 3 Sur 12 Norte 0 -- -- 94
2017-08-10 20:00:00 18.4 3 Sudeste 15 Norte 0 -- -- 92
2017-08-10 19:00:00 19 3 Este 10 Noroeste 0 -- -- 90
2017-08-10 18:00:00 20.6 4 Sudoeste 13 Este 0 -- -- 83
2017-08-10 17:00:00 21.7 4 Norte 13 Nordeste 0 -- -- 78
2017-08-10 16:00:00 22.1 5 Nordeste 13 Nordeste 0 -- -- 76
2017-08-10 15:00:00 25.5 5 Sur 13 Sur 0 -- -- 63
2017-08-10 14:00:00 24.8 6 Sur 15 Sudoeste 0 -- -- 66
2017-08-10 13:00:00 24 5 Sudeste 17 Sudoeste 0 -- -- 69
2017-08-10 12:00:00 21.8 4 Oeste 9 Sudeste 0 -- -- 77
2017-08-10 11:00:00 19 3 Nordeste 10 Este 0 -- -- 91
2017-08-10 10:00:00 17.6 5 Sudeste 13 Este 0 -- -- 97
2017-08-10 09:00:00 17.5 4 Este 12 Nordeste 0 -- -- 99
2017-08-10 08:00:00 17.1 4 Este 12 Este 0 -- -- 98
2017-08-10 07:00:00 17 4 Este 19 Este 0 -- -- 98
2017-08-10 06:00:00 17 5 Nordeste 13 Norte 0 -- -- 97
2017-08-10 05:00:00 17.2 3 Este 11 Nordeste 0 -- -- 96
2017-08-10 04:00:00 17.3 3 Este 14 Norte 0 -- -- 96
2017-08-10 03:00:00 17.3 4 Nordeste 13 Norte 0 -- -- 93
2017-08-10 02:00:00 18.2 7 Sudeste 23 Nordeste 0 -- -- 71
2017-08-10 01:00:00 17.3 5 Norte 14 Oeste 0 -- -- 89
2017-08-10 00:00:00 17.5 6 Norte 13 Norte 0 -- -- 93
2017-08-09 23:00:00 18 3 Este 10 Norte 0 -- -- 94
2017-08-09 22:00:00 18.5 3 Nordeste 9 Este 0 -- -- 96
2017-08-09 21:00:00 18.9 3 Nordeste 13 Noroeste 0 -- -- 96
2017-08-09 20:00:00 19.7 6 Norte 12 Norte 0 -- -- 92
2017-08-09 19:00:00 20.5 3 Norte 13 Norte 0 -- -- 88
2017-08-09 18:00:00 22.4 6 Norte 12 Nordeste 0 -- -- 79
2017-08-09 17:00:00 25.6 4 Noroeste 11 Oeste 0 -- -- 66
2017-08-09 16:00:00 26.9 4 Noroeste 14 Oeste 0 -- -- 61
2017-08-09 15:00:00 27.3 4 Norte 11 Oeste 0 -- -- 60
2017-08-09 14:00:00 29.6 4 Noroeste 9 Noroeste 0 -- -- 53
2017-08-09 13:00:00 31.2 4 Sur 14 Sur 0 -- -- 48
2017-08-09 12:00:00 30.5 5 Sudeste 9 Sudeste 0 -- -- 46
2017-08-09 11:00:00 24.7 3 Sudeste 7 Este 0 -- -- 71
2017-08-09 10:00:00 23.7 0 Calma 18 Sudoeste 0 -- -- 74
2017-08-09 09:00:00 19.5 6 Sudoeste 16 Sudoeste 0 -- -- 76
2017-08-09 08:00:00 18 9 Norte 13 Norte 0 -- -- 98
2017-08-09 07:00:00 18.3 6 Norte 20 Norte 0 -- -- 97
2017-08-09 06:00:00 18.1 17 Norte 21 Norte 0 -- -- 95
2017-08-09 05:00:00 21.4 6 Sudoeste 21 Sudeste 0 -- -- 58
2017-08-09 04:00:00 22.4 8 Sur 28 Este 0 -- -- 52
2017-08-09 03:00:00 21.1 4 Sur 13 Nordeste 0 -- -- 68
2017-08-09 02:00:00 19.5 4 Sudeste 9 Sudoeste 0 -- -- 73
2017-08-09 01:00:00 19 3 Sudeste 10 Sudoeste 0 -- -- 85
2017-08-09 00:00:00 19.4 4 Sur 10 Sudoeste 0 -- -- 87
2017-08-08 23:00:00 19.7 3 Este 9 Nordeste 0 -- -- 86
2017-08-08 22:00:00 20.2 3 Noroeste 8 Noroeste 0 -- -- 87
2017-08-08 21:00:00 22.9 2 Sudeste 10 Sudoeste 0 -- -- 76
2017-08-08 20:00:00 28.8 2 Oeste 9 Sudeste 0 -- -- 51
2017-08-08 19:00:00 30.9 4 Sur 11 Sudeste 0 -- -- 26
2017-08-08 18:00:00 31.5 4 Sudoeste 12 Norte 0 -- -- 29
2017-08-08 17:00:00 31.2 5 Norte 12 Norte 0 -- -- 39
2017-08-08 16:00:00 31.3 6 Norte 13 Norte 0 -- -- 45
2017-08-08 15:00:00 32.2 5 Noroeste 14 Norte 0 -- -- 37
2017-08-08 14:00:00 31.5 4 Noroeste 13 Noroeste 0 -- -- 39
2017-08-08 13:00:00 34.2 5 Noroeste 10 Norte 0 -- -- 29
2017-08-08 12:00:00 32.4 5 Norte 21 Sur 0 -- -- 30
2017-08-08 11:00:00 32.6 16 Sur 24 Sur 0 -- -- 28
2017-08-08 10:00:00 28.6 5 Sudoeste 10 Sudoeste 0 -- -- 43
2017-08-08 09:00:00 26.3 2 Nordeste 10 Sudoeste 0 -- -- 36
2017-08-08 08:00:00 23.7 4 Este 14 Este 0 -- -- 44
2017-08-08 07:00:00 24.8 4 Este 11 Nordeste 0 -- -- 43
2017-08-08 06:00:00 26.6 7 Sudoeste 10 Sudoeste 0 -- -- 30
2017-08-08 05:00:00 26.5 8 Sur 13 Sudoeste 0 -- -- 32
2017-08-08 04:00:00 24.7 6 Sudeste 19 Este 0 -- -- 42
2017-08-08 03:00:00 25.6 8 Sudeste 13 Sur 0 -- -- 36
2017-08-08 02:00:00 25.6 5 Sur 12 Sudeste 0 -- -- 35
2017-08-08 01:00:00 26.7 6 Sur 13 Sudoeste 0 -- -- 32
2017-08-08 00:00:00 26.6 4 Sur 9 Este 0 -- -- 31
2017-08-07 23:00:00 25.1 6 Este 10 Este 0 -- -- 37
2017-08-07 22:00:00 24.6 3 Sudeste 8 Nordeste 0 -- -- 45
2017-08-07 21:00:00 24.9 4 Este 10 Este 0 -- -- 48
2017-08-07 20:00:00 25.4 4 Este 13 Nordeste 0 -- -- 47
2017-08-07 19:00:00 28.1 6 Norte 10 Noroeste 0 -- -- 40
2017-08-07 18:00:00 27.9 6 Norte 11 Nordeste 0 -- -- 52
2017-08-07 17:00:00 27.2 4 Noroeste 10 Norte 0 -- -- 63
2017-08-07 16:00:00 26.4 5 Norte 10 Noroeste 0 -- -- 65
2017-08-07 15:00:00 25.1 5 Norte 11 Norte 0 -- -- 72
2017-08-07 14:00:00 25.7 5 Norte 10 Norte 0 -- -- 68
2017-08-07 13:00:00 29.2 4 Sudeste 18 Sur 0 -- -- 57
2017-08-07 12:00:00 25.6 4 Sur 11 Sudeste 0 -- -- 69
2017-08-07 11:00:00 22.8 2 Sudeste 8 Noroeste 0 -- -- 79
2017-08-07 10:00:00 24.6 4 Sur 17 Sudoeste 0 -- -- 67
2017-08-07 09:00:00 18.3 4 Noroeste 13 Nordeste 0 -- -- 94
2017-08-07 08:00:00 17.8 5 Oeste 13 Sudoeste 0 -- -- 71
2017-08-07 07:00:00 19.6 12 Sudoeste 17 Sudoeste 0 -- -- 45
2017-08-07 06:00:00 17.4 3 Nordeste 12 Norte 0 -- -- 99
2017-08-07 05:00:00 17.7 3 Norte 9 Este 0 -- -- 99
2017-08-07 04:00:00 17.6 3 Norte 11 Este 0 -- -- 98
2017-08-07 03:00:00 17.7 3 Sudeste 10 Nordeste 0 -- -- 98
2017-08-07 02:00:00 17.6 3 Este 16 Norte 0 -- -- 98
2017-08-07 01:00:00 18.1 7 Noroeste 15 Sudoeste 0 -- -- 91
2017-08-07 00:00:00 22.1 10 Sudoeste 15 Sudoeste 0 -- -- 38
2017-08-06 23:00:00 17.8 3 Norte 11 Nordeste 0 -- -- 98
2017-08-06 22:00:00 18.1 3 Sudeste 9 Sudeste 0 -- -- 97
2017-08-06 21:00:00 18.3 2 Este 12 Sudeste 0 -- -- 98
2017-08-06 20:00:00 18.8 2 Sudeste 11 Nordeste 0 -- -- 97
2017-08-06 19:00:00 19.6 2 Noroeste 11 Norte 0 -- -- 94
2017-08-06 18:00:00 19.6 5 Norte 10 Norte 0 -- -- 92
2017-08-06 17:00:00 20 5 Norte 12 Norte 0 -- -- 92
2017-08-06 16:00:00 20.7 3 Norte 13 Sudeste 0 -- -- 88
2017-08-06 15:00:00 21.5 5 Sudeste 16 Sudeste 0 -- -- 82
2017-08-06 14:00:00 21.8 5 Sudeste 15 Este 0 -- -- 78
2017-08-06 13:00:00 22.2 7 Sudeste 18 Sudeste 0 -- -- 77
2017-08-06 12:00:00 19.4 4 Sur 13 Este 0 -- -- 88
2017-08-06 11:00:00 18.9 5 Sudeste 12 Sudeste 0 -- -- 91
2017-08-06 10:00:00 17.7 3 Este 9 Nordeste 0 -- -- 96
2017-08-06 09:00:00 16.8 2 Sudeste 7 Nordeste 0 -- -- 97
2017-08-06 08:00:00 16.9 3 Este 14 Este 0 -- -- 99
2017-08-06 07:00:00 16.9 3 Sur 12 Nordeste 0 -- -- 98
2017-08-06 06:00:00 17 3 Este 9 Este 0 -- -- 97
2017-08-06 05:00:00 16.9 3 Este 13 Este 0 -- -- 96
2017-08-06 04:00:00 17 3 Sur 11 Sudeste 0 -- -- 96
2017-08-06 03:00:00 16.9 6 Sudeste 13 Este 0 -- -- 95
2017-08-06 02:00:00 17 5 Nordeste 12 Nordeste 0 -- -- 96
2017-08-06 01:00:00 17.4 4 Este 13 Sudeste 0 -- -- 96
2017-08-06 00:00:00 17.2 3 Este 17 Nordeste 0 -- -- 96
2017-08-05 23:00:00 17.3 5 Este 21 Nordeste 0 -- -- 97
2017-08-05 22:00:00 17.7 8 Nordeste 28 Nordeste 0 -- -- 98
2017-08-05 21:00:00 17.9 4 Nordeste 15 Nordeste 0 -- -- 96
2017-08-05 20:00:00 18.2 4 Sudoeste 17 Nordeste 0 -- -- 91
2017-08-05 19:00:00 18.7 3 Oeste 11 Norte 0 -- -- 86
2017-08-05 18:00:00 18.9 4 Noroeste 15 Noroeste 0 -- -- 85
2017-08-05 17:00:00 18.6 6 Nordeste 16 Nordeste 0 -- -- 90
2017-08-05 16:00:00 19.4 4 Este 14 Nordeste 0 -- -- 86
2017-08-05 15:00:00 20.5 4 Este 16 Sudeste 0 -- -- 82
2017-08-05 14:00:00 23.1 10 Este 23 Este 0 -- -- 69
2017-08-05 13:00:00 21.9 8 Sur 18 Sur 0 -- -- 74
2017-08-05 12:00:00 20.3 4 Este 16 Noroeste 0 -- -- 76
2017-08-05 11:00:00 19 5 Nordeste 14 Norte 0 -- -- 83
2017-08-05 10:00:00 18.1 4 Este 10 Nordeste 0 -- -- 86
2017-08-05 09:00:00 17.3 5 Este 11 Sudeste 0 -- -- 86
2017-08-05 08:00:00 16.5 3 Sur 10 Sudeste 0 -- -- 94
2017-08-05 07:00:00 16.5 3 Sudoeste 14 Sudeste 0 -- -- 94
2017-08-05 06:00:00 16.6 5 Este 14 Nordeste 0 -- -- 95
2017-08-05 05:00:00 16.6 5 Sur 16 Nordeste 0 -- -- 95
2017-08-05 04:00:00 16.8 4 Este 12 Este 0 -- -- 96
2017-08-05 03:00:00 16.8 6 Nordeste 15 Nordeste 0 -- -- 97
2017-08-05 02:00:00 16.9 6 Este 15 Nordeste 0 -- -- 98
2017-08-05 01:00:00 17.1 6 Este 18 Nordeste 0 -- -- 97
2017-08-05 00:00:00 17.4 3 Sudoeste 13 Este 0 -- -- 96
2017-08-04 23:00:00 17.2 5 Este 13 Nordeste 0 -- -- 95
2017-08-04 22:00:00 17.3 3 Sur 13 Sudeste 0 -- -- 91
2017-08-04 21:00:00 17.4 5 Este 13 Nordeste 0 -- -- 92
2017-08-04 20:00:00 18.3 4 Sudeste 15 Sudeste 0 -- -- 86
2017-08-04 19:00:00 19 4 Sudeste 14 Norte 0 -- -- 83
2017-08-04 18:00:00 20.5 4 Norte 14 Oeste 0 -- -- 74
2017-08-04 17:00:00 21.1 5 Noroeste 16 Sudoeste 0 -- -- 73
2017-08-04 16:00:00 21.2 5 Este 14 Norte 0 -- -- 72
2017-08-04 15:00:00 19.7 5 Este 17 Este 0 -- -- 80
2017-08-04 14:00:00 21.1 6 Nordeste 16 Este 0 -- -- 74
2017-08-04 13:00:00 21.1 6 Este 17 Nordeste 0 -- -- 71
2017-08-04 12:00:00 19 5 Nordeste 13 Este 0 -- -- 80
2017-08-04 11:00:00 17.8 5 Este 15 Sudeste 0 -- -- 89
2017-08-04 10:00:00 17.3 4 Sur 14 Nordeste 0 -- -- 90
2017-08-04 09:00:00 16.3 4 Sur 13 Norte 0 -- -- 95
2017-08-04 08:00:00 15.7 4 Sur 13 Sudoeste 0 -- -- 94
2017-08-04 07:00:00 15.7 4 Sur 13 Este 0 -- -- 97
2017-08-04 06:00:00 15.8 4 Sudeste 17 Este 0 -- -- 98
2017-08-04 05:00:00 16 5 Este 19 Nordeste 0 -- -- 99
2017-08-04 04:00:00 16.1 5 Este 19 Este 0 -- -- 99
2017-08-04 03:00:00 16.2 5 Nordeste 19 Nordeste 0 -- -- 98
2017-08-04 02:00:00 16.2 4 Sudeste 13 Este 0 -- -- 97
2017-08-04 01:00:00 16.4 4 Este 15 Este 0 -- -- 98
2017-08-04 00:00:00 16.6 6 Sudeste 21 Sur 0 -- -- 98
2017-08-03 23:00:00 16.6 5 Sudeste 21 Nordeste 0 -- -- 98
2017-08-03 22:00:00 16.7 7 Este 22 Este 0 -- -- 98
2017-08-03 21:00:00 16.8 4 Noroeste 17 Este 0 -- -- 96
2017-08-03 20:00:00 17.1 5 Este 15 Este 0 -- -- 91
2017-08-03 19:00:00 17.6 5 Sudeste 14 Este 0 -- -- 87
2017-08-03 18:00:00 17.9 5 Sur 14 Oeste 0 -- -- 86
2017-08-03 17:00:00 18.3 6 Este 16 Este 0 -- -- 84
2017-08-03 16:00:00 19.2 4 Este 21 Nordeste 0 -- -- 80
2017-08-03 15:00:00 19.7 4 Sudoeste 20 Sudoeste 0 -- -- 74
2017-08-03 14:00:00 19.4 6 Sur 18 Sudeste 0 -- -- 77
2017-08-03 13:00:00 19.8 5 Norte 16 Sudeste 0 -- -- 70
2017-08-03 12:00:00 18.3 6 Sudeste 22 Sudeste 0 -- -- 79
2017-08-03 11:00:00 17.3 8 Este 17 Este 0 -- -- 83
2017-08-03 10:00:00 15.8 5 Sudeste 20 Este 0 -- -- 97
2017-08-03 09:00:00 15.8 5 Sur 15 Nordeste 0 -- -- 99
2017-08-03 08:00:00 15.9 6 Sudeste 17 Nordeste 0 -- -- 99
2017-08-03 07:00:00 15.9 5 Este 22 Nordeste 0 -- -- 99
2017-08-03 06:00:00 16.1 6 Sudeste 27 Nordeste 0 -- -- 99
2017-08-03 05:00:00 16.1 6 Este 16 Sudeste 0 -- -- 99
2017-08-03 04:00:00 16 4 Este 18 Este 0 -- -- 98
2017-08-03 03:00:00 16.2 7 Sudeste 18 Este 0 -- -- 98
2017-08-03 02:00:00 16.1 6 Este 18 Este 0 -- -- 97
2017-08-03 01:00:00 16.2 8 Sudeste 22 Sudeste 0 -- -- 98
2017-08-03 00:00:00 16.2 8 Este 26 Este 0 -- -- 98
2017-08-02 23:00:00 16.5 6 Este 21 Nordeste 0 -- -- 98
2017-08-02 22:00:00 16.5 5 Sudeste 17 Sudeste 0 -- -- 97
2017-08-02 21:00:00 16.7 5 Sudeste 15 Nordeste 0 -- -- 97
2017-08-02 20:00:00 17.1 5 Sudeste 21 Sudeste 0 -- -- 95
2017-08-02 19:00:00 17.5 5 Sur 14 Norte 0 -- -- 93
2017-08-02 18:00:00 17.6 5 Este 13 Norte 0 -- -- 92
2017-08-02 17:00:00 17.7 5 Sudoeste 13 Nordeste 0 -- -- 91
2017-08-02 16:00:00 17.9 5 Sudeste 15 Este 0 -- -- 90
2017-08-02 15:00:00 18.3 4 Nordeste 22 Este 0 -- -- 86
2017-08-02 14:00:00 18.8 5 Sudeste 17 Sudeste 0 -- -- 86
2017-08-02 13:00:00 18.6 7 Este 19 Sur 0 -- -- 84
2017-08-02 12:00:00 17.4 4 Sudeste 20 Sudeste 0 -- -- 93
2017-08-02 11:00:00 16.8 7 Este 23 Este 0 -- -- 97
2017-08-02 10:00:00 16.8 6 Sudeste 20 Este 0 -- -- 97
2017-08-02 09:00:00 16.5 6 Este 22 Este 0 -- -- 98
2017-08-02 08:00:00 16.7 5 Sudeste 24 Este 0 -- -- 99
2017-08-02 07:00:00 16.5 5 Sudeste 17 Sudeste 0 -- -- 98
2017-08-02 06:00:00 16.6 5 Este 17 Este 0 -- -- 97
2017-08-02 05:00:00 16.6 5 Nordeste 15 Este 0 -- -- 97
2017-08-02 04:00:00 16.7 5 Este 18 Nordeste 0 -- -- 97
2017-08-02 03:00:00 16.7 5 Este 16 Nordeste 0 -- -- 97
2017-08-02 02:00:00 16.8 4 Nordeste 16 Nordeste 0 -- -- 96
2017-08-02 01:00:00 16.8 5 Este 19 Nordeste 0 -- -- 95
2017-08-02 00:00:00 17 4 Este 14 Sudeste 0 -- -- 95
2017-08-01 23:00:00 17.1 5 Este 12 Sudeste 0 -- -- 96
2017-08-01 22:00:00 17.1 3 Sudeste 14 Norte 0 -- -- 96
2017-08-01 21:00:00 17.4 5 Este 13 Nordeste 0.2 -- -- 97
2017-08-01 20:00:00 17.9 4 Sudeste 13 Este 0.2 -- -- 96
2017-08-01 19:00:00 18.4 5 Sudeste 17 Este 0.4 -- -- 94
2017-08-01 18:00:00 18.9 4 Sudeste 17 Sudeste 0.2 -- -- 94
2017-08-01 17:00:00 21.3 4 Sudeste 15 Sudeste 0 -- -- 76
2017-08-01 16:00:00 22.7 5 Sudeste 17 Este 0 -- -- 69
2017-08-01 15:00:00 22.7 6 Sudeste 20 Sudeste 0 -- -- 68
2017-08-01 14:00:00 21.5 6 Sudeste 16 Sudeste 0 -- -- 73
2017-08-01 13:00:00 21.2 7 Nordeste 30 Este 0 -- -- 73
2017-08-01 12:00:00 20.6 10 Sudeste 22 Este 0 -- -- 74
2017-08-01 11:00:00 19.4 5 Norte 18 Sudeste 0 -- -- 79
2017-08-01 10:00:00 18.7 8 Sudeste 16 Este 0 -- -- 77
2017-08-01 09:00:00 17.3 6 Sudeste 14 Este 0 -- -- 86
2017-08-01 08:00:00 16 4 Sudeste 14 Este 0 -- -- 95
2017-08-01 07:00:00 15.9 6 Nordeste 19 Nordeste 0 -- -- 94
2017-08-01 06:00:00 16.2 3 Noroeste 8 Este 0 -- -- 93
2017-08-01 05:00:00 16.3 3 Sur 13 Nordeste 0 -- -- 92
2017-08-01 04:00:00 16.4 4 Sur 12 Este 0 -- -- 92
2017-08-01 03:00:00 16.3 4 Sur 10 Este 0 -- -- 92
2017-08-01 02:00:00 16.3 3 Nordeste 12 Norte 0 -- -- 92
2017-08-01 01:00:00 16.6 4 Sudoeste 14 Nordeste 0 -- -- 95
2017-08-01 00:00:00 16.5 5 Sudeste 17 Este 0 -- -- 94
2017-07-31 23:00:00 16.8 4 Sudoeste 12 Sur 0 -- -- 91
2017-07-31 22:00:00 17 5 Este 17 Nordeste 0 -- -- 89
2017-07-31 21:00:00 17.4 3 Este 13 Nordeste 0 -- -- 85
2017-07-31 20:00:00 19.6 4 Sudoeste 11 Sudeste 0 -- -- 73
2017-07-31 19:00:00 21.2 4 Sudeste 14 Nordeste 0 -- -- 63
2017-07-31 18:00:00 20.9 5 Sudoeste 23 Sudeste 0 -- -- 68
2017-07-31 17:00:00 22.2 6 Este 21 Sudeste 0 -- -- 61
2017-07-31 16:00:00 21.8 7 Sudeste 21 Este 0 -- -- 64
2017-07-31 15:00:00 22.9 8 Sudeste 18 Sur 0 -- -- 62
2017-07-31 14:00:00 20.4 5 Sur 15 Nordeste 0 -- -- 71
2017-07-31 13:00:00 18.9 5 Noroeste 14 Sudeste 0 -- -- 76
2017-07-31 12:00:00 18.3 5 Sudoeste 13 Norte 0 -- -- 80
2017-07-31 11:00:00 17.3 4 Oeste 15 Norte 0 -- -- 84
2017-07-31 10:00:00 16.5 3 Sudeste 10 Sudeste 0 -- -- 87
2017-07-31 09:00:00 15.6 3 Este 15 Norte 0 -- -- 89
2017-07-31 08:00:00 14.9 3 Sur 9 Sudeste 0 -- -- 84
2017-07-31 07:00:00 15.3 3 Sudoeste 12 Nordeste 0 -- -- 91
2017-07-31 06:00:00 15.3 3 Sudeste 14 Nordeste 0 -- -- 91
2017-07-31 05:00:00 15.5 3 Sur 13 Nordeste 0 -- -- 89
2017-07-31 04:00:00 15.6 4 Este 14 Nordeste 0 -- -- 90
2017-07-31 03:00:00 15.7 3 Sudeste 13 Nordeste 0 -- -- 91
2017-07-31 02:00:00 16 4 Este 14 Sudeste 0 -- -- 89
2017-07-31 01:00:00 16.3 3 Sur 13 Nordeste 0 -- -- 89
2017-07-31 00:00:00 16.5 4 Sudoeste 12 Este 0 -- -- 89
2017-07-30 23:00:00 16.9 3 Sur 7 Sudeste 0 -- -- 87
2017-07-30 22:00:00 17.1 3 Sudoeste 10 Nordeste 0 -- -- 86
2017-07-30 21:00:00 17.6 3 Norte 9 Norte 0 -- -- 85
2017-07-30 20:00:00 20 4 Sudeste 8 Nordeste 0 -- -- 76
2017-07-30 19:00:00 22.5 4 Sudeste 13 Este 0 -- -- 66
2017-07-30 18:00:00 23.5 5 Sudeste 12 Nordeste 0 -- -- 62
2017-07-30 17:00:00 22.7 4 Sur 12 Este 0 -- -- 65
2017-07-30 16:00:00 21.7 7 Norte 14 Noroeste 0 -- -- 70
2017-07-30 15:00:00 25.4 4 Sur 10 Sur 0 -- -- 57
2017-07-30 14:00:00 25.2 6 Sudeste 16 Sudeste 0 -- -- 57
2017-07-30 13:00:00 24.9 8 Sudeste 15 Sudeste 0 -- -- 59
2017-07-30 12:00:00 24.6 7 Sudeste 13 Sudeste 0 -- -- 58
2017-07-30 11:00:00 24.1 3 Sur 12 Sudeste 0 -- -- 60
2017-07-30 10:00:00 24.5 3 Sur 10 Sudoeste 0 -- -- 39
2017-07-30 09:00:00 23.1 6 Sudoeste 13 Sur 0 -- -- 31
2017-07-30 08:00:00 22.7 6 Sudoeste 14 Sudoeste 0 -- -- 14
2017-07-30 07:00:00 23 5 Sudoeste 13 Sudoeste 0 -- -- 12
2017-07-30 06:00:00 23.4 4 Sudoeste 15 Nordeste 0 -- -- 11
2017-07-30 05:00:00 23.8 9 Nordeste 15 Nordeste 0 -- -- 6
2017-07-30 04:00:00 23.3 5 Este 10 Sudoeste 0 -- -- 6
2017-07-30 03:00:00 23.8 3 Sudeste 9 Este 0 -- -- 13
2017-07-30 02:00:00 24.7 4 Sudeste 10 Sudeste 0 -- -- 13
2017-07-30 01:00:00 24.2 3 Sur 7 Sur 0 -- -- 11
2017-07-30 00:00:00 24.5 6 Nordeste 11 Sudoeste 0 -- -- 6
2017-07-29 23:00:00 24.1 3 Sudeste 8 Sur 0 -- -- 12
2017-07-29 22:00:00 25.2 3 Sur 9 Sudoeste 0 -- -- 16
2017-07-29 21:00:00 26.3 4 Sudoeste 6 Norte 0 -- -- 18
2017-07-29 20:00:00 29.8 3 Noroeste 8 Sudoeste 0 -- -- 13
2017-07-29 19:00:00 32 4 Sudoeste 8 Oeste 0 -- -- 9
2017-07-29 18:00:00 32.8 3 Este 10 Noroeste 0 -- -- 8
2017-07-29 17:00:00 31.6 5 Norte 13 Norte 0 -- -- 5
2017-07-29 16:00:00 32.8 5 Nordeste 13 Norte 0 -- -- 6
2017-07-29 15:00:00 33.6 4 Norte 13 Nordeste 0 -- -- 8
2017-07-29 14:00:00 34.8 5 Sudeste 12 Sudeste 0 -- -- 9
2017-07-29 13:00:00 33 4 Norte 12 Noroeste 0 -- -- 17
2017-07-29 12:00:00 32.7 6 Norte 12 Noroeste 0 -- -- 22
2017-07-29 11:00:00 31.4 9 Norte 13 Noroeste 0 -- -- 17
2017-07-29 10:00:00 28.4 9 Norte 13 Norte 0 -- -- 15
2017-07-29 09:00:00 25.7 5 Norte 12 Norte 0 -- -- 18
2017-07-29 08:00:00 24.5 5 Noroeste 11 Sudoeste 0 -- -- 19
2017-07-29 07:00:00 24.5 5 Sudoeste 17 Sudoeste 0 -- -- 18
2017-07-29 06:00:00 24.8 6 Sudoeste 14 Sudoeste 0 -- -- 18
2017-07-29 05:00:00 24.7 9 Sudoeste 16 Sudoeste 0 -- -- 15
2017-07-29 04:00:00 24.6 3 Sur 14 Nordeste 0 -- -- 17
2017-07-29 03:00:00 24.9 3 Sudeste 16 Sur 0 -- -- 16
2017-07-29 02:00:00 24.9 3 Sudeste 14 Este 0 -- -- 18
2017-07-29 01:00:00 25 5 Sur 15 Nordeste 0 -- -- 20
2017-07-29 00:00:00 24.8 6 Norte 15 Noroeste 0 -- -- 22
2017-07-28 23:00:00 29.3 11 Noroeste 15 Noroeste 0 -- -- 21
2017-07-28 22:00:00 29.7 5 Noroeste 14 Norte 0 -- -- 19
2017-07-28 21:00:00 30.3 11 Noroeste 15 Noroeste 0 -- -- 23
2017-07-28 20:00:00 29.9 10 Norte 20 Norte 0 -- -- 26
2017-07-28 19:00:00 32.8 13 Norte 21 Noroeste 0 -- -- 25
2017-07-28 18:00:00 35.3 8 Norte 15 Noroeste 0 -- -- 28
2017-07-28 17:00:00 38.4 7 Noroeste 17 Norte 0 -- -- 21
2017-07-28 16:00:00 37.2 7 Norte 18 Sur 0 -- -- 19
2017-07-28 15:00:00 37.8 7 Sudeste 15 Este 0 -- -- 18
2017-07-28 14:00:00 37.4 8 Noroeste 20 Noroeste 0 -- -- 14
2017-07-28 13:00:00 34.5 7 Noroeste 18 Norte 0 -- -- 14
2017-07-28 12:00:00 33.8 9 Norte 18 Noroeste 0 -- -- 16
2017-07-28 11:00:00 31.8 9 Norte 21 Noroeste 0 -- -- 20
2017-07-28 10:00:00 30 10 Norte 17 Norte 0 -- -- 22
2017-07-28 09:00:00 29.1 5 Oeste 21 Sudoeste 0 -- -- 19
2017-07-28 08:00:00 27 4 Oeste 18 Sudoeste 0 -- -- 15
2017-07-28 07:00:00 25.4 7 Este 18 Este 0 -- -- 20
2017-07-28 06:00:00 25.4 5 Este 21 Este 0 -- -- 18
2017-07-28 05:00:00 24.4 5 Este 17 Sudeste 0 -- -- 23
2017-07-28 04:00:00 24.5 7 Sudeste 15 Este 0 -- -- 26
2017-07-28 03:00:00 25.5 11 Este 15 Este 0 -- -- 24
2017-07-28 02:00:00 28.5 3 Sudeste 11 Nordeste 0 -- -- 18
2017-07-28 01:00:00 30.4 8 Noroeste 14 Noroeste 0 -- -- 16
2017-07-28 00:00:00 30.2 11 Noroeste 18 Noroeste 0 -- -- 16
2017-07-27 23:00:00 30.9 14 Noroeste 17 Noroeste 0 -- -- 15
2017-07-27 22:00:00 29.4 7 Noroeste 13 Noroeste 0 -- -- 17
2017-07-27 21:00:00 31.2 10 Noroeste 13 Noroeste 0 -- -- 17
2017-07-27 20:00:00 32.9 6 Noroeste 9 Norte 0 -- -- 18
2017-07-27 19:00:00 34 4 Norte 14 Norte 0 -- -- 17
2017-07-27 18:00:00 35.4 9 Norte 17 Norte 0 -- -- 20
2017-07-27 17:00:00 35.1 10 Norte 17 Noroeste 0 -- -- 23
2017-07-27 16:00:00 32.9 9 Norte 13 Norte 0 -- -- 21
2017-07-27 15:00:00 33.2 8 Norte 14 Norte 0 -- -- 29
2017-07-27 14:00:00 31.4 6 Norte 12 Norte 0 -- -- 30
2017-07-27 13:00:00 31 7 Nordeste 13 Norte 0 -- -- 24
2017-07-27 12:00:00 30.5 4 Norte 9 Nordeste 0 -- -- 24
2017-07-27 11:00:00 28.2 3 Norte 9 Norte 0 -- -- 29
2017-07-27 10:00:00 25.7 4 Norte 8 Norte 0 -- -- 36
2017-07-27 09:00:00 23.1 0 Calma 6 Sudeste 0 -- -- 38
2017-07-27 08:00:00 21.5 5 Sudeste 14 Este 0 -- -- 36
2017-07-27 07:00:00 22.3 3 Sudeste 14 Este 0 -- -- 26
2017-07-27 06:00:00 22.3 4 Este 14 Nordeste 0 -- -- 30
2017-07-27 05:00:00 22.9 6 Nordeste 15 Este 0 -- -- 27
2017-07-27 04:00:00 23.1 4 Sudoeste 18 Sudoeste 0 -- -- 23
2017-07-27 03:00:00 22.9 8 Sudeste 14 Sudeste 0 -- -- 21
2017-07-27 02:00:00 22.4 6 Sur 18 Oeste 0 -- -- 21
2017-07-27 01:00:00 22.3 9 Sudoeste 15 Sudoeste 0 -- -- 23
2017-07-27 00:00:00 22.5 8 Sudoeste 16 Sudoeste 0 -- -- 25
2017-07-26 23:00:00 21.3 10 Sur 17 Sudoeste 0 -- -- 31
2017-07-26 22:00:00 20.3 8 Sudoeste 14 Sudoeste 0 -- -- 45
2017-07-26 21:00:00 18.2 3 Sur 9 Sudoeste 0 -- -- 87
2017-07-26 20:00:00 18.9 2 Norte 9 Nordeste 0 -- -- 89
2017-07-26 19:00:00 21.5 3 Noroeste 9 Nordeste 0 -- -- 77
2017-07-26 18:00:00 22.6 4 Norte 11 Sudoeste 0 -- -- 72
2017-07-26 17:00:00 24.2 5 Sudeste 12 Sudoeste 0 -- -- 67
2017-07-26 16:00:00 24.1 5 Sur 10 Sudeste 0 -- -- 68
2017-07-26 15:00:00 23.9 4 Sudoeste 13 Sudeste 0 -- -- 68
2017-07-26 14:00:00 22.6 5 Oeste 12 Sudeste 0 -- -- 72
2017-07-26 13:00:00 20.2 5 Norte 11 Noroeste 0 -- -- 82
2017-07-26 12:00:00 18.7 3 Noroeste 13 Norte 0 -- -- 90
2017-07-26 11:00:00 17.9 4 Sudeste 10 Norte 0 -- -- 95
2017-07-26 10:00:00 17 4 Este 10 Este 0 -- -- 98
2017-07-26 09:00:00 16.2 2 Este 9 Este 0 -- -- 99
2017-07-26 08:00:00 15.8 3 Sudeste 11 Nordeste 0 -- -- 99
2017-07-26 07:00:00 15.8 4 Sur 9 Este 0 -- -- 99
2017-07-26 06:00:00 15.7 3 Sur 12 Sudeste 0 -- -- 98
2017-07-26 05:00:00 16 2 Oeste 8 Este 0 -- -- 98
2017-07-26 04:00:00 16 3 Sudeste 13 Sudoeste 0 -- -- 97
2017-07-26 03:00:00 16 2 Sudeste 9 Sudoeste 0 -- -- 97
2017-07-26 02:00:00 16.2 4 Sudoeste 13 Este 0 -- -- 96
2017-07-26 01:00:00 16.4 2 Sudeste 12 Sudeste 0 -- -- 98
2017-07-26 00:00:00 16.5 3 Este 11 Este 0 -- -- 98
2017-07-25 23:00:00 16.6 4 Este 12 Nordeste 0 -- -- 98
2017-07-25 22:00:00 16.9 3 Este 13 Norte 0 -- -- 98
2017-07-25 21:00:00 17.3 2 Sudeste 11 Sudeste 0 -- -- 96
2017-07-25 20:00:00 17.5 3 Nordeste 12 Este -- -- -- 96
2017-07-25 19:00:00 18.5 3 Sudoeste 8 Norte 0 -- -- 92
2017-07-25 18:00:00 19.7 3 Sudeste 12 Este 0 -- -- 86
2017-07-25 17:00:00 20.4 5 Este 13 Nordeste 0 -- -- 80
2017-07-25 16:00:00 20.7 5 Sudeste 13 Este 0 -- -- 81
2017-07-25 15:00:00 19.2 4 Sur 11 Este 0 -- -- 89
2017-07-25 14:00:00 18.6 4 Oeste 10 Este 0 -- -- 93
2017-07-25 13:00:00 18.1 4 Sudoeste 16 Sudeste 0 -- -- 93
2017-07-25 12:00:00 17.5 3 Sudeste 9 Sudeste 0 -- -- 95
2017-07-25 11:00:00 16.9 3 Sudeste 11 Sudeste 0 -- -- 100
2017-07-25 10:00:00 16.6 4 Este 15 Sudeste 0 -- -- 100
2017-07-25 09:00:00 16.3 4 Sudeste 13 Este 0 -- -- 100
2017-07-25 08:00:00 16.2 4 Este 9 Este 0 -- -- 99
2017-07-25 07:00:00 16 4 Este 9 Sudeste 0 -- -- 99
2017-07-25 06:00:00 16 4 Este 11 Este 0 -- -- 99
2017-07-25 05:00:00 16 5 Este 15 Sudeste 0 -- -- 99
2017-07-25 04:00:00 15.9 5 Sudeste 14 Sudoeste 0 -- -- 98
2017-07-25 03:00:00 15.8 5 Sudeste 13 Sudeste 0 -- -- 97
2017-07-25 02:00:00 16.2 4 Sudeste 9 Sur 0 -- -- 98
2017-07-25 01:00:00 16.4 5 Este 16 Norte 0 -- -- 98
2017-07-25 00:00:00 16.3 3 Este 20 Este 0 -- -- 98
2017-07-24 23:00:00 16.4 5 Este 12 Nordeste 0 -- -- 98
2017-07-24 22:00:00 16.5 4 Sudeste 17 Este 0 -- -- 98
2017-07-24 21:00:00 16.6 5 Nordeste 19 Este 0 -- -- 97
2017-07-24 20:00:00 16.7 5 Nordeste 16 Este -- -- -- 96
2017-07-24 19:00:00 17.4 4 Sur 16 Sur 0 -- -- 91
2017-07-24 18:00:00 17.7 5 Este 15 Sudeste 0 -- -- 90
2017-07-24 17:00:00 17.8 5 Este 17 Nordeste 0 -- -- 89
2017-07-24 16:00:00 17.8 5 Este 18 Norte 0 -- -- 90
2017-07-24 15:00:00 17.9 6 Sudeste 19 Nordeste 0 -- -- 89
2017-07-24 14:00:00 17.8 5 Sur 18 Nordeste 0 -- -- 90
2017-07-24 13:00:00 17.4 5 Este 17 Nordeste 0 -- -- 91
2017-07-24 12:00:00 17 5 Sudeste 17 Sudeste 0 -- -- 94
2017-07-24 11:00:00 16.2 5 Sur 14 Sur 0 -- -- 98
2017-07-24 10:00:00 16.1 5 Sudeste 13 Sudeste 0 -- -- 97
2017-07-24 09:00:00 15.6 4 Sudeste 13 Oeste 0 -- -- 99
2017-07-24 08:00:00 15.3 4 Sur 13 Nordeste 0 -- -- 99
2017-07-24 07:00:00 15.3 4 Sur 13 Este 0 -- -- 99
2017-07-24 06:00:00 15.2 4 Sudoeste 14 Sudeste 0 -- -- 99
2017-07-24 05:00:00 15.6 5 Sudeste 17 Norte 0 -- -- 99
2017-07-24 04:00:00 15.6 3 Sudeste 20 Este 0 -- -- 98
2017-07-24 03:00:00 15.5 4 Sudeste 15 Nordeste 0 -- -- 98
2017-07-24 02:00:00 15.6 5 Sudeste 15 Este 0 -- -- 99
2017-07-24 01:00:00 15.8 6 Sudeste 22 Norte 0 -- -- 99
2017-07-24 00:00:00 16 6 Sudeste 18 Norte 0 -- -- 99
2017-07-23 23:00:00 15.9 5 Sur 21 Este 0 -- -- 99
2017-07-23 22:00:00 16.1 5 Sudeste 17 Norte 0 -- -- 98
2017-07-23 21:00:00 16.2 5 Sudeste 22 Norte 0 -- -- 97
2017-07-23 20:00:00 16.6 7 Sur 21 Sudeste 0 -- -- 96
2017-07-23 19:00:00 16.9 8 Sur 18 Sudeste 0 -- -- 94
2017-07-23 18:00:00 17.4 7 Sur 17 Este 0 -- -- 90
2017-07-23 17:00:00 17.7 5 Sur 26 Este 0 -- -- 89
2017-07-23 16:00:00 18.1 5 Sudeste 18 Sudeste 0 -- -- 87
2017-07-23 15:00:00 18.6 5 Sudeste 16 Este 0 -- -- 82
2017-07-23 14:00:00 18 6 Sudeste 18 Oeste 0 -- -- 85
2017-07-23 13:00:00 17.2 6 Sur 21 Este 0 -- -- 91
2017-07-23 12:00:00 18.2 5 Este 19 Este 0 -- -- 87
2017-07-23 11:00:00 17.6 9 Sudeste 19 Este 0 -- -- 86
2017-07-23 10:00:00 16.4 7 Sur 20 Nordeste 0 -- -- 92
2017-07-23 09:00:00 15.9 7 Sudeste 21 Nordeste 0 -- -- 96
2017-07-23 08:00:00 15.1 5 Este 18 Este 0 -- -- 95
2017-07-23 07:00:00 15.1 8 Sudeste 21 Sudeste 0 -- -- 98
2017-07-23 06:00:00 14.9 5 Sur 18 Este 0 -- -- 96
2017-07-23 05:00:00 15.2 6 Sudeste 24 Nordeste 0 -- -- 99
2017-07-23 04:00:00 15.2 6 Sudeste 15 Sudeste 0 -- -- 98
2017-07-23 03:00:00 15.2 5 Sudeste 22 Este 0 -- -- 97
2017-07-23 02:00:00 15.2 8 Sudeste 17 Nordeste 0 -- -- 97
2017-07-23 01:00:00 15.5 9 Sudeste 22 Nordeste 0 -- -- 98
2017-07-23 00:00:00 15.7 6 Sudeste 20 Sudeste 0 -- -- 98